sensor_id;sensor_type;location;lat;lon;timestamp;temperature;humidity
19538;DHT22;9914;51.008;4.300;2022-08-19T00:00:07;20.70;99.90
19538;DHT22;9914;51.008;4.300;2022-08-19T00:02:35;20.70;99.90
19538;DHT22;9914;51.008;4.300;2022-08-19T00:05:00;20.70;99.90
19538;DHT22;9914;51.008;4.300;2022-08-19T00:07:26;20.60;99.90
19538;DHT22;9914;51.008;4.300;2022-08-19T00:09:52;20.60;99.90
19538;DHT22;9914;51.008;4.300;2022-08-19T00:12:19;20.60;99.90
19538;DHT22;9914;51.008;4.300;2022-08-19T00:14:44;20.70;99.90
19538;DHT22;9914;51.008;4.300;2022-08-19T00:17:10;20.80;99.90
19538;DHT22;9914;51.008;4.300;2022-08-19T00:19:36;20.70;99.90
19538;DHT22;9914;51.008;4.300;2022-08-19T00:22:03;20.90;99.90
19538;DHT22;9914;51.008;4.300;2022-08-19T00:24:30;21.00;99.90
19538;DHT22;9914;51.008;4.300;2022-08-19T00:26:57;20.90;99.90
19538;DHT22;9914;51.008;4.300;2022-08-19T00:29:24;20.80;99.90
19538;DHT22;9914;51.008;4.300;2022-08-19T00:31:51;20.80;99.90
19538;DHT22;9914;51.008;4.300;2022-08-19T00:34:21;20.70;99.90
19538;DHT22;9914;51.008;4.300;2022-08-19T00:36:48;20.70;99.90
19538;DHT22;9914;51.008;4.300;2022-08-19T00:39:15;20.80;99.90
19538;DHT22;9914;51.008;4.300;2022-08-19T00:41:43;20.70;99.90
19538;DHT22;9914;51.008;4.300;2022-08-19T00:44:13;20.70;99.90
19538;DHT22;9914;51.008;4.300;2022-08-19T00:46:42;20.60;99.90
19538;DHT22;9914;51.008;4.300;2022-08-19T00:49:26;20.50;99.90
19538;DHT22;9914;51.008;4.300;2022-08-19T00:51:56;20.50;99.90
19538;DHT22;9914;51.008;4.300;2022-08-19T00:54:23;20.60;99.90
19538;DHT22;9914;51.008;4.300;2022-08-19T00:56:50;20.60;99.90
19538;DHT22;9914;51.008;4.300;2022-08-19T00:59:17;20.50;99.90
19538;DHT22;9914;51.008;4.300;2022-08-19T01:01:44;20.50;99.90
19538;DHT22;9914;51.008;4.300;2022-08-19T01:04:11;20.60;99.90
19538;DHT22;9914;51.008;4.300;2022-08-19T01:06:38;20.50;99.90
19538;DHT22;9914;51.008;4.300;2022-08-19T01:09:05;20.40;99.90
19538;DHT22;9914;51.008;4.300;2022-08-19T01:11:34;20.30;99.90
19538;DHT22;9914;51.008;4.300;2022-08-19T01:14:00;20.30;99.90
19538;DHT22;9914;51.008;4.300;2022-08-19T01:16:27;20.30;99.90
19538;DHT22;9914;51.008;4.300;2022-08-19T01:18:54;20.30;99.90
19538;DHT22;9914;51.008;4.300;2022-08-19T01:23:53;20.20;99.90
19538;DHT22;9914;51.008;4.300;2022-08-19T01:26:21;20.20;99.90
19538;DHT22;9914;51.008;4.300;2022-08-19T01:28:50;20.20;99.90
19538;DHT22;9914;51.008;4.300;2022-08-19T01:31:20;20.20;99.90
19538;DHT22;9914;51.008;4.300;2022-08-19T01:33:47;20.10;99.90
19538;DHT22;9914;51.008;4.300;2022-08-19T01:36:22;20.10;99.90
19538;DHT22;9914;51.008;4.300;2022-08-19T01:38:49;20.10;99.90
19538;DHT22;9914;51.008;4.300;2022-08-19T01:41:15;20.00;99.90
19538;DHT22;9914;51.008;4.300;2022-08-19T01:43:42;20.00;99.90
19538;DHT22;9914;51.008;4.300;2022-08-19T01:46:07;20.00;99.90
19538;DHT22;9914;51.008;4.300;2022-08-19T01:48:36;20.00;99.90
19538;DHT22;9914;51.008;4.300;2022-08-19T01:51:01;20.00;99.90
19538;DHT22;9914;51.008;4.300;2022-08-19T01:53:27;19.80;99.90
19538;DHT22;9914;51.008;4.300;2022-08-19T01:55:53;19.80;99.90
19538;DHT22;9914;51.008;4.300;2022-08-19T01:58:22;19.80;99.90
19538;DHT22;9914;51.008;4.300;2022-08-19T02:00:49;19.80;99.90
19538;DHT22;9914;51.008;4.300;2022-08-19T02:03:15;19.80;99.90
19538;DHT22;9914;51.008;4.300;2022-08-19T02:05:42;19.80;99.90
19538;DHT22;9914;51.008;4.300;2022-08-19T02:08:08;19.80;99.90
19538;DHT22;9914;51.008;4.300;2022-08-19T02:10:37;19.80;99.90
19538;DHT22;9914;51.008;4.300;2022-08-19T02:13:03;19.80;99.90
19538;DHT22;9914;51.008;4.300;2022-08-19T02:15:28;19.80;99.90
19538;DHT22;9914;51.008;4.300;2022-08-19T02:17:54;19.70;99.90
19538;DHT22;9914;51.008;4.300;2022-08-19T02:20:20;19.80;99.90
19538;DHT22;9914;51.008;4.300;2022-08-19T02:22:45;19.80;99.90
19538;DHT22;9914;51.008;4.300;2022-08-19T02:25:13;19.70;99.90
19538;DHT22;9914;51.008;4.300;2022-08-19T02:27:40;19.70;99.90
19538;DHT22;9914;51.008;4.300;2022-08-19T02:30:09;19.60;99.90
19538;DHT22;9914;51.008;4.300;2022-08-19T02:32:34;19.60;99.90
19538;DHT22;9914;51.008;4.300;2022-08-19T02:35:00;19.50;99.90
19538;DHT22;9914;51.008;4.300;2022-08-19T02:37:26;19.50;99.90
19538;DHT22;9914;51.008;4.300;2022-08-19T02:40:11;19.50;99.90
19538;DHT22;9914;51.008;4.300;2022-08-19T02:42:37;19.60;99.90
19538;DHT22;9914;51.008;4.300;2022-08-19T02:45:03;19.60;99.90
19538;DHT22;9914;51.008;4.300;2022-08-19T02:47:30;19.50;99.90
19538;DHT22;9914;51.008;4.300;2022-08-19T02:49:55;19.50;99.90
19538;DHT22;9914;51.008;4.300;2022-08-19T02:52:21;19.40;99.90
19538;DHT22;9914;51.008;4.300;2022-08-19T02:54:48;19.50;99.90
19538;DHT22;9914;51.008;4.300;2022-08-19T02:57:14;19.50;99.90
19538;DHT22;9914;51.008;4.300;2022-08-19T02:59:40;19.60;99.90
19538;DHT22;9914;51.008;4.300;2022-08-19T03:02:05;19.60;99.90
19538;DHT22;9914;51.008;4.300;2022-08-19T03:04:31;19.40;99.90
19538;DHT22;9914;51.008;4.300;2022-08-19T03:06:57;19.40;99.90
19538;DHT22;9914;51.008;4.300;2022-08-19T03:09:22;19.40;99.90
19538;DHT22;9914;51.008;4.300;2022-08-19T03:11:48;19.50;99.90
19538;DHT22;9914;51.008;4.300;2022-08-19T03:14:14;19.50;99.90
19538;DHT22;9914;51.008;4.300;2022-08-19T03:16:46;19.40;99.90
19538;DHT22;9914;51.008;4.300;2022-08-19T03:19:12;19.30;99.90
19538;DHT22;9914;51.008;4.300;2022-08-19T03:21:38;19.20;99.90
19538;DHT22;9914;51.008;4.300;2022-08-19T03:24:06;19.20;99.90
19538;DHT22;9914;51.008;4.300;2022-08-19T03:26:33;19.10;99.90
19538;DHT22;9914;51.008;4.300;2022-08-19T03:29:03;19.10;99.90
19538;DHT22;9914;51.008;4.300;2022-08-19T03:31:30;19.20;99.90
19538;DHT22;9914;51.008;4.300;2022-08-19T03:33:56;19.20;99.90
19538;DHT22;9914;51.008;4.300;2022-08-19T03:36:24;19.10;99.90
19538;DHT22;9914;51.008;4.300;2022-08-19T03:38:54;19.00;99.90
19538;DHT22;9914;51.008;4.300;2022-08-19T03:41:25;19.00;99.90
19538;DHT22;9914;51.008;4.300;2022-08-19T03:43:51;19.00;99.90
19538;DHT22;9914;51.008;4.300;2022-08-19T03:46:20;18.90;99.90
19538;DHT22;9914;51.008;4.300;2022-08-19T03:48:47;18.90;99.90
19538;DHT22;9914;51.008;4.300;2022-08-19T03:51:30;18.90;99.90
19538;DHT22;9914;51.008;4.300;2022-08-19T03:53:58;18.90;99.90
19538;DHT22;9914;51.008;4.300;2022-08-19T03:56:24;18.90;99.90
19538;DHT22;9914;51.008;4.300;2022-08-19T03:58:52;18.90;99.90
19538;DHT22;9914;51.008;4.300;2022-08-19T04:01:19;18.80;99.90
19538;DHT22;9914;51.008;4.300;2022-08-19T04:03:46;18.80;99.90
19538;DHT22;9914;51.008;4.300;2022-08-19T04:06:13;18.80;99.90
19538;DHT22;9914;51.008;4.300;2022-08-19T04:08:40;18.70;99.90
19538;DHT22;9914;51.008;4.300;2022-08-19T04:11:08;18.60;99.90
19538;DHT22;9914;51.008;4.300;2022-08-19T04:13:34;18.60;99.90
19538;DHT22;9914;51.008;4.300;2022-08-19T04:16:00;18.60;99.90
19538;DHT22;9914;51.008;4.300;2022-08-19T04:18:26;18.60;99.90
19538;DHT22;9914;51.008;4.300;2022-08-19T04:20:51;18.60;99.90
19538;DHT22;9914;51.008;4.300;2022-08-19T04:23:17;18.60;99.90
19538;DHT22;9914;51.008;4.300;2022-08-19T04:25:44;18.50;99.90
19538;DHT22;9914;51.008;4.300;2022-08-19T04:28:11;18.60;99.90
19538;DHT22;9914;51.008;4.300;2022-08-19T04:30:47;18.60;99.90
19538;DHT22;9914;51.008;4.300;2022-08-19T04:33:14;18.60;99.90
19538;DHT22;9914;51.008;4.300;2022-08-19T04:35:43;18.70;99.90
19538;DHT22;9914;51.008;4.300;2022-08-19T04:38:10;18.70;99.90
19538;DHT22;9914;51.008;4.300;2022-08-19T04:40:43;18.60;99.90
19538;DHT22;9914;51.008;4.300;2022-08-19T04:43:28;18.60;99.90
19538;DHT22;9914;51.008;4.300;2022-08-19T04:45:54;18.50;99.90
19538;DHT22;9914;51.008;4.300;2022-08-19T04:48:21;18.50;99.90
19538;DHT22;9914;51.008;4.300;2022-08-19T04:50:56;18.50;99.90
19538;DHT22;9914;51.008;4.300;2022-08-19T04:53:26;18.40;99.90
19538;DHT22;9914;51.008;4.300;2022-08-19T04:55:55;18.50;99.90
19538;DHT22;9914;51.008;4.300;2022-08-19T04:58:20;18.50;99.90
19538;DHT22;9914;51.008;4.300;2022-08-19T05:00:46;18.60;99.90
19538;DHT22;9914;51.008;4.300;2022-08-19T05:03:11;18.60;99.90
19538;DHT22;9914;51.008;4.300;2022-08-19T05:05:40;18.60;99.90
19538;DHT22;9914;51.008;4.300;2022-08-19T05:08:05;18.50;99.90
19538;DHT22;9914;51.008;4.300;2022-08-19T05:10:35;18.50;99.90
19538;DHT22;9914;51.008;4.300;2022-08-19T05:13:01;18.50;99.90
19538;DHT22;9914;51.008;4.300;2022-08-19T05:15:26;18.40;99.90
19538;DHT22;9914;51.008;4.300;2022-08-19T05:17:52;18.50;99.90
19538;DHT22;9914;51.008;4.300;2022-08-19T05:20:38;18.50;99.90
19538;DHT22;9914;51.008;4.300;2022-08-19T05:23:22;18.50;99.90
19538;DHT22;9914;51.008;4.300;2022-08-19T05:25:49;18.60;99.90
19538;DHT22;9914;51.008;4.300;2022-08-19T05:28:15;18.50;99.90
19538;DHT22;9914;51.008;4.300;2022-08-19T05:30:41;18.50;99.90
19538;DHT22;9914;51.008;4.300;2022-08-19T05:33:08;18.60;99.90
19538;DHT22;9914;51.008;4.300;2022-08-19T05:35:37;18.70;99.90
19538;DHT22;9914;51.008;4.300;2022-08-19T05:38:03;18.80;99.90
19538;DHT22;9914;51.008;4.300;2022-08-19T05:40:29;18.90;99.90
19538;DHT22;9914;51.008;4.300;2022-08-19T05:42:55;18.90;99.90
19538;DHT22;9914;51.008;4.300;2022-08-19T05:45:21;19.00;99.90
19538;DHT22;9914;51.008;4.300;2022-08-19T05:47:47;19.20;99.90
19538;DHT22;9914;51.008;4.300;2022-08-19T05:50:13;19.20;99.90
19538;DHT22;9914;51.008;4.300;2022-08-19T05:52:39;19.40;99.90
19538;DHT22;9914;51.008;4.300;2022-08-19T05:55:05;19.40;99.90
19538;DHT22;9914;51.008;4.300;2022-08-19T05:57:31;19.50;99.90
19538;DHT22;9914;51.008;4.300;2022-08-19T05:59:57;19.50;99.90
19538;DHT22;9914;51.008;4.300;2022-08-19T06:02:29;19.60;99.90
19538;DHT22;9914;51.008;4.300;2022-08-19T06:04:56;19.60;99.90
19538;DHT22;9914;51.008;4.300;2022-08-19T06:07:21;19.70;99.90
19538;DHT22;9914;51.008;4.300;2022-08-19T06:09:47;19.70;99.90
19538;DHT22;9914;51.008;4.300;2022-08-19T06:12:12;19.70;99.90
19538;DHT22;9914;51.008;4.300;2022-08-19T06:14:38;19.90;99.90
19538;DHT22;9914;51.008;4.300;2022-08-19T06:17:04;20.10;99.90
19538;DHT22;9914;51.008;4.300;2022-08-19T06:19:30;20.30;99.90
19538;DHT22;9914;51.008;4.300;2022-08-19T06:21:57;20.40;99.90
19538;DHT22;9914;51.008;4.300;2022-08-19T06:24:25;20.70;99.90
19538;DHT22;9914;51.008;4.300;2022-08-19T06:26:53;20.80;99.90
19538;DHT22;9914;51.008;4.300;2022-08-19T06:29:21;20.80;99.90
19538;DHT22;9914;51.008;4.300;2022-08-19T06:31:50;20.90;99.90
19538;DHT22;9914;51.008;4.300;2022-08-19T06:34:16;21.00;99.90
19538;DHT22;9914;51.008;4.300;2022-08-19T06:36:46;21.00;99.90
19538;DHT22;9914;51.008;4.300;2022-08-19T06:39:15;21.00;99.90
19538;DHT22;9914;51.008;4.300;2022-08-19T06:41:47;21.10;99.90
19538;DHT22;9914;51.008;4.300;2022-08-19T06:44:14;21.10;99.90
19538;DHT22;9914;51.008;4.300;2022-08-19T06:46:40;21.00;99.90
19538;DHT22;9914;51.008;4.300;2022-08-19T06:49:06;21.10;99.90
19538;DHT22;9914;51.008;4.300;2022-08-19T06:51:35;21.10;99.90
19538;DHT22;9914;51.008;4.300;2022-08-19T06:54:00;21.30;99.90
19538;DHT22;9914;51.008;4.300;2022-08-19T06:56:30;21.50;99.90
19538;DHT22;9914;51.008;4.300;2022-08-19T06:59:15;21.60;99.90
19538;DHT22;9914;51.008;4.300;2022-08-19T07:01:44;21.60;99.90
19538;DHT22;9914;51.008;4.300;2022-08-19T07:04:11;21.60;99.90
19538;DHT22;9914;51.008;4.300;2022-08-19T07:06:37;21.50;99.90
19538;DHT22;9914;51.008;4.300;2022-08-19T07:09:06;21.40;99.90
19538;DHT22;9914;51.008;4.300;2022-08-19T07:11:32;21.30;99.90
19538;DHT22;9914;51.008;4.300;2022-08-19T07:13:59;21.30;99.90
19538;DHT22;9914;51.008;4.300;2022-08-19T07:16:24;21.40;99.90
19538;DHT22;9914;51.008;4.300;2022-08-19T07:18:51;21.70;99.90
19538;DHT22;9914;51.008;4.300;2022-08-19T07:21:20;21.80;99.90
19538;DHT22;9914;51.008;4.300;2022-08-19T07:23:47;21.80;99.90
19538;DHT22;9914;51.008;4.300;2022-08-19T07:26:20;22.00;99.90
19538;DHT22;9914;51.008;4.300;2022-08-19T07:28:47;22.10;99.90
19538;DHT22;9914;51.008;4.300;2022-08-19T07:31:15;22.30;99.90
19538;DHT22;9914;51.008;4.300;2022-08-19T07:33:44;22.50;99.90
19538;DHT22;9914;51.008;4.300;2022-08-19T07:36:13;22.70;99.90
19538;DHT22;9914;51.008;4.300;2022-08-19T07:38:41;22.50;99.90
19538;DHT22;9914;51.008;4.300;2022-08-19T07:41:11;22.50;99.90
19538;DHT22;9914;51.008;4.300;2022-08-19T07:43:39;22.70;99.90
19538;DHT22;9914;51.008;4.300;2022-08-19T07:46:05;22.90;99.90
19538;DHT22;9914;51.008;4.300;2022-08-19T07:48:31;23.00;99.90
19538;DHT22;9914;51.008;4.300;2022-08-19T07:51:01;23.00;99.90
19538;DHT22;9914;51.008;4.300;2022-08-19T07:53:29;23.00;99.90
19538;DHT22;9914;51.008;4.300;2022-08-19T07:55:55;23.10;99.90
19538;DHT22;9914;51.008;4.300;2022-08-19T07:58:27;23.40;99.90
19538;DHT22;9914;51.008;4.300;2022-08-19T08:00:53;23.60;99.90
19538;DHT22;9914;51.008;4.300;2022-08-19T08:03:21;23.80;99.90
19538;DHT22;9914;51.008;4.300;2022-08-19T08:06:10;23.90;99.90
19538;DHT22;9914;51.008;4.300;2022-08-19T08:08:54;23.90;99.90
19538;DHT22;9914;51.008;4.300;2022-08-19T08:11:50;24.00;99.90
19538;DHT22;9914;51.008;4.300;2022-08-19T08:14:22;24.10;99.90
19538;DHT22;9914;51.008;4.300;2022-08-19T08:16:49;24.00;99.90
19538;DHT22;9914;51.008;4.300;2022-08-19T08:19:16;24.10;99.90
19538;DHT22;9914;51.008;4.300;2022-08-19T08:21:42;24.20;99.90
19538;DHT22;9914;51.008;4.300;2022-08-19T08:24:08;24.20;99.90
19538;DHT22;9914;51.008;4.300;2022-08-19T08:26:34;24.30;99.90
19538;DHT22;9914;51.008;4.300;2022-08-19T08:29:00;24.30;99.90
19538;DHT22;9914;51.008;4.300;2022-08-19T08:31:26;24.20;99.90
19538;DHT22;9914;51.008;4.300;2022-08-19T08:33:53;24.20;99.90
19538;DHT22;9914;51.008;4.300;2022-08-19T08:36:18;24.10;99.90
19538;DHT22;9914;51.008;4.300;2022-08-19T08:38:45;24.00;99.90
19538;DHT22;9914;51.008;4.300;2022-08-19T08:43:47;24.20;99.90
19538;DHT22;9914;51.008;4.300;2022-08-19T08:46:51;24.20;99.90
19538;DHT22;9914;51.008;4.300;2022-08-19T08:49:38;24.20;99.90
19538;DHT22;9914;51.008;4.300;2022-08-19T08:52:11;24.30;99.90
19538;DHT22;9914;51.008;4.300;2022-08-19T08:54:42;24.30;99.90
19538;DHT22;9914;51.008;4.300;2022-08-19T08:57:15;24.50;99.90
19538;DHT22;9914;51.008;4.300;2022-08-19T08:59:46;24.40;99.90
19538;DHT22;9914;51.008;4.300;2022-08-19T09:02:16;24.40;99.90
19538;DHT22;9914;51.008;4.300;2022-08-19T09:04:42;24.20;99.90
19538;DHT22;9914;51.008;4.300;2022-08-19T09:10:14;24.30;99.90
19538;DHT22;9914;51.008;4.300;2022-08-19T09:12:47;24.50;99.90
19538;DHT22;9914;51.008;4.300;2022-08-19T09:15:18;24.40;99.90
19538;DHT22;9914;51.008;4.300;2022-08-19T09:17:45;24.50;99.90
19538;DHT22;9914;51.008;4.300;2022-08-19T09:20:21;24.70;99.90
19538;DHT22;9914;51.008;4.300;2022-08-19T09:22:47;24.90;99.90
19538;DHT22;9914;51.008;4.300;2022-08-19T09:25:17;25.10;99.90
19538;DHT22;9914;51.008;4.300;2022-08-19T09:27:44;25.10;99.90
19538;DHT22;9914;51.008;4.300;2022-08-19T09:30:29;25.20;99.90
19538;DHT22;9914;51.008;4.300;2022-08-19T09:32:55;25.00;99.90
19538;DHT22;9914;51.008;4.300;2022-08-19T09:35:26;24.60;99.90
19538;DHT22;9914;51.008;4.300;2022-08-19T09:37:53;24.60;99.90
19538;DHT22;9914;51.008;4.300;2022-08-19T09:40:19;24.70;99.90
19538;DHT22;9914;51.008;4.300;2022-08-19T09:42:46;24.70;99.90
19538;DHT22;9914;51.008;4.300;2022-08-19T09:45:14;24.70;99.90
19538;DHT22;9914;51.008;4.300;2022-08-19T09:47:39;24.50;99.90
19538;DHT22;9914;51.008;4.300;2022-08-19T09:50:06;24.50;99.90
19538;DHT22;9914;51.008;4.300;2022-08-19T09:52:33;24.40;99.90
19538;DHT22;9914;51.008;4.300;2022-08-19T09:55:06;24.30;99.90
19538;DHT22;9914;51.008;4.300;2022-08-19T09:57:32;24.40;99.90
19538;DHT22;9914;51.008;4.300;2022-08-19T09:59:58;24.50;99.90
19538;DHT22;9914;51.008;4.300;2022-08-19T10:02:24;24.70;99.90
19538;DHT22;9914;51.008;4.300;2022-08-19T10:04:50;24.90;99.90
19538;DHT22;9914;51.008;4.300;2022-08-19T10:07:35;25.00;99.90
19538;DHT22;9914;51.008;4.300;2022-08-19T10:10:01;25.10;99.90
19538;DHT22;9914;51.008;4.300;2022-08-19T10:12:27;25.10;99.90
19538;DHT22;9914;51.008;4.300;2022-08-19T10:14:53;25.10;99.90
19538;DHT22;9914;51.008;4.300;2022-08-19T10:17:20;25.00;99.90
19538;DHT22;9914;51.008;4.300;2022-08-19T10:19:45;25.00;99.90
19538;DHT22;9914;51.008;4.300;2022-08-19T10:22:12;25.10;99.90
19538;DHT22;9914;51.008;4.300;2022-08-19T10:24:39;25.30;99.90
19538;DHT22;9914;51.008;4.300;2022-08-19T10:27:05;25.50;99.90
19538;DHT22;9914;51.008;4.300;2022-08-19T10:29:31;25.70;99.90
19538;DHT22;9914;51.008;4.300;2022-08-19T10:31:58;25.60;99.90
19538;DHT22;9914;51.008;4.300;2022-08-19T10:34:26;25.80;99.90
19538;DHT22;9914;51.008;4.300;2022-08-19T10:36:52;25.80;99.90
19538;DHT22;9914;51.008;4.300;2022-08-19T10:39:17;25.60;99.90
19538;DHT22;9914;51.008;4.300;2022-08-19T10:41:43;25.60;99.90
19538;DHT22;9914;51.008;4.300;2022-08-19T10:44:11;25.30;99.90
19538;DHT22;9914;51.008;4.300;2022-08-19T10:46:40;25.10;99.90
19538;DHT22;9914;51.008;4.300;2022-08-19T10:49:08;25.00;99.90
19538;DHT22;9914;51.008;4.300;2022-08-19T10:51:35;25.10;99.90
19538;DHT22;9914;51.008;4.300;2022-08-19T10:54:20;25.20;99.90
19538;DHT22;9914;51.008;4.300;2022-08-19T10:56:45;25.20;99.90
19538;DHT22;9914;51.008;4.300;2022-08-19T10:59:22;25.10;99.90
19538;DHT22;9914;51.008;4.300;2022-08-19T11:01:49;25.00;99.90
19538;DHT22;9914;51.008;4.300;2022-08-19T11:04:15;24.80;99.90
19538;DHT22;9914;51.008;4.300;2022-08-19T11:06:44;24.70;99.90
19538;DHT22;9914;51.008;4.300;2022-08-19T11:09:17;24.80;99.90
19538;DHT22;9914;51.008;4.300;2022-08-19T11:11:44;24.70;99.90
19538;DHT22;9914;51.008;4.300;2022-08-19T11:14:12;24.70;99.90
19538;DHT22;9914;51.008;4.300;2022-08-19T11:16:40;24.80;99.90
19538;DHT22;9914;51.008;4.300;2022-08-19T11:19:07;24.80;99.90
19538;DHT22;9914;51.008;4.300;2022-08-19T11:21:39;25.00;99.90
19538;DHT22;9914;51.008;4.300;2022-08-19T11:24:14;25.20;99.90
19538;DHT22;9914;51.008;4.300;2022-08-19T11:26:42;25.50;99.90
19538;DHT22;9914;51.008;4.300;2022-08-19T11:29:10;25.70;99.90
19538;DHT22;9914;51.008;4.300;2022-08-19T11:31:40;25.90;99.90
19538;DHT22;9914;51.008;4.300;2022-08-19T11:34:08;26.00;99.90
19538;DHT22;9914;51.008;4.300;2022-08-19T11:36:37;26.20;99.90
19538;DHT22;9914;51.008;4.300;2022-08-19T11:39:05;26.40;99.90
19538;DHT22;9914;51.008;4.300;2022-08-19T11:41:31;26.60;99.90
19538;DHT22;9914;51.008;4.300;2022-08-19T11:43:57;27.00;99.90
19538;DHT22;9914;51.008;4.300;2022-08-19T11:46:24;27.30;99.90
19538;DHT22;9914;51.008;4.300;2022-08-19T11:48:51;27.40;99.90
19538;DHT22;9914;51.008;4.300;2022-08-19T11:51:21;27.30;99.90
19538;DHT22;9914;51.008;4.300;2022-08-19T11:53:47;27.40;99.90
19538;DHT22;9914;51.008;4.300;2022-08-19T11:56:13;27.60;99.90
19538;DHT22;9914;51.008;4.300;2022-08-19T11:58:39;27.40;99.90
19538;DHT22;9914;51.008;4.300;2022-08-19T12:01:17;27.60;99.90
19538;DHT22;9914;51.008;4.300;2022-08-19T12:03:44;27.80;99.90
19538;DHT22;9914;51.008;4.300;2022-08-19T12:06:13;28.10;99.90
19538;DHT22;9914;51.008;4.300;2022-08-19T12:08:41;28.30;99.90
19538;DHT22;9914;51.008;4.300;2022-08-19T12:11:07;28.50;99.90
19538;DHT22;9914;51.008;4.300;2022-08-19T12:13:36;28.50;99.90
19538;DHT22;9914;51.008;4.300;2022-08-19T12:16:08;28.30;99.90
19538;DHT22;9914;51.008;4.300;2022-08-19T12:18:38;28.20;99.90
19538;DHT22;9914;51.008;4.300;2022-08-19T12:21:04;28.20;99.90
19538;DHT22;9914;51.008;4.300;2022-08-19T12:23:29;28.30;99.90
19538;DHT22;9914;51.008;4.300;2022-08-19T12:25:56;28.40;99.90
19538;DHT22;9914;51.008;4.300;2022-08-19T12:28:24;28.30;99.90
19538;DHT22;9914;51.008;4.300;2022-08-19T12:30:50;28.10;99.90
19538;DHT22;9914;51.008;4.300;2022-08-19T12:33:20;27.80;99.90
19538;DHT22;9914;51.008;4.300;2022-08-19T12:35:49;27.60;99.90
19538;DHT22;9914;51.008;4.300;2022-08-19T12:38:16;27.30;99.90
19538;DHT22;9914;51.008;4.300;2022-08-19T12:40:45;27.20;99.90
19538;DHT22;9914;51.008;4.300;2022-08-19T12:43:12;27.30;99.90
19538;DHT22;9914;51.008;4.300;2022-08-19T12:45:39;27.20;99.90
19538;DHT22;9914;51.008;4.300;2022-08-19T12:48:04;27.20;99.90
19538;DHT22;9914;51.008;4.300;2022-08-19T12:50:30;27.40;99.90
19538;DHT22;9914;51.008;4.300;2022-08-19T12:52:56;27.70;99.90
19538;DHT22;9914;51.008;4.300;2022-08-19T12:55:22;28.00;99.90
19538;DHT22;9914;51.008;4.300;2022-08-19T12:57:48;28.40;99.90
19538;DHT22;9914;51.008;4.300;2022-08-19T13:00:20;28.60;99.90
19538;DHT22;9914;51.008;4.300;2022-08-19T13:02:48;28.90;99.90
19538;DHT22;9914;51.008;4.300;2022-08-19T13:05:21;29.20;99.90
19538;DHT22;9914;51.008;4.300;2022-08-19T13:07:48;29.00;99.90
19538;DHT22;9914;51.008;4.300;2022-08-19T13:10:17;28.90;99.90
19538;DHT22;9914;51.008;4.300;2022-08-19T13:12:44;29.00;99.90
19538;DHT22;9914;51.008;4.300;2022-08-19T13:15:11;29.10;99.90
19538;DHT22;9914;51.008;4.300;2022-08-19T13:17:38;29.00;99.90
19538;DHT22;9914;51.008;4.300;2022-08-19T13:20:06;29.10;99.90
19538;DHT22;9914;51.008;4.300;2022-08-19T13:22:33;29.10;99.90
19538;DHT22;9914;51.008;4.300;2022-08-19T13:25:02;29.00;99.90
19538;DHT22;9914;51.008;4.300;2022-08-19T13:27:29;28.90;99.90
19538;DHT22;9914;51.008;4.300;2022-08-19T13:29:54;28.80;99.90
19538;DHT22;9914;51.008;4.300;2022-08-19T13:32:39;28.90;99.90
19538;DHT22;9914;51.008;4.300;2022-08-19T13:35:23;28.90;99.90
19538;DHT22;9914;51.008;4.300;2022-08-19T13:37:49;28.80;99.90
19538;DHT22;9914;51.008;4.300;2022-08-19T13:40:17;28.70;99.90
19538;DHT22;9914;51.008;4.300;2022-08-19T13:42:45;28.80;99.90
19538;DHT22;9914;51.008;4.300;2022-08-19T13:45:12;28.80;99.90
19538;DHT22;9914;51.008;4.300;2022-08-19T13:47:40;28.70;99.90
19538;DHT22;9914;51.008;4.300;2022-08-19T13:50:13;28.80;99.90
19538;DHT22;9914;51.008;4.300;2022-08-19T13:52:39;28.90;99.90
19538;DHT22;9914;51.008;4.300;2022-08-19T13:55:06;28.90;99.90
19538;DHT22;9914;51.008;4.300;2022-08-19T13:57:32;28.90;99.90
19538;DHT22;9914;51.008;4.300;2022-08-19T13:59:58;28.40;99.90
19538;DHT22;9914;51.008;4.300;2022-08-19T14:02:25;28.60;99.90
19538;DHT22;9914;51.008;4.300;2022-08-19T14:04:52;28.60;99.90
19538;DHT22;9914;51.008;4.300;2022-08-19T14:07:17;28.70;99.90
19538;DHT22;9914;51.008;4.300;2022-08-19T14:09:43;29.10;99.90
19538;DHT22;9914;51.008;4.300;2022-08-19T14:12:09;29.20;99.90
19538;DHT22;9914;51.008;4.300;2022-08-19T14:14:38;29.10;99.90
19538;DHT22;9914;51.008;4.300;2022-08-19T14:17:08;28.70;99.90
19538;DHT22;9914;51.008;4.300;2022-08-19T14:19:34;28.40;99.90
19538;DHT22;9914;51.008;4.300;2022-08-19T14:22:00;28.20;99.90
19538;DHT22;9914;51.008;4.300;2022-08-19T14:24:26;27.90;99.90
19538;DHT22;9914;51.008;4.300;2022-08-19T14:26:52;27.70;99.90
19538;DHT22;9914;51.008;4.300;2022-08-19T14:29:18;27.20;99.90
19538;DHT22;9914;51.008;4.300;2022-08-19T14:31:44;27.20;99.90
19538;DHT22;9914;51.008;4.300;2022-08-19T14:34:10;27.20;99.90
19538;DHT22;9914;51.008;4.300;2022-08-19T14:36:39;27.20;99.90
19538;DHT22;9914;51.008;4.300;2022-08-19T14:39:04;27.20;99.90
19538;DHT22;9914;51.008;4.300;2022-08-19T14:41:30;26.80;99.90
19538;DHT22;9914;51.008;4.300;2022-08-19T14:43:57;26.50;99.90
19538;DHT22;9914;51.008;4.300;2022-08-19T14:46:25;26.40;99.90
19538;DHT22;9914;51.008;4.300;2022-08-19T14:48:52;26.50;99.90
19538;DHT22;9914;51.008;4.300;2022-08-19T14:51:19;26.60;99.90
19538;DHT22;9914;51.008;4.300;2022-08-19T14:53:45;26.80;99.90
19538;DHT22;9914;51.008;4.300;2022-08-19T14:56:17;26.80;99.90
19538;DHT22;9914;51.008;4.300;2022-08-19T14:58:43;26.80;99.90
19538;DHT22;9914;51.008;4.300;2022-08-19T15:01:11;26.90;99.90
19538;DHT22;9914;51.008;4.300;2022-08-19T15:03:37;27.50;99.90
19538;DHT22;9914;51.008;4.300;2022-08-19T15:06:05;27.70;99.90
19538;DHT22;9914;51.008;4.300;2022-08-19T15:08:33;27.60;99.90
19538;DHT22;9914;51.008;4.300;2022-08-19T15:11:01;27.80;99.90
19538;DHT22;9914;51.008;4.300;2022-08-19T15:13:28;27.80;99.90
19538;DHT22;9914;51.008;4.300;2022-08-19T15:15:54;27.90;99.90
19538;DHT22;9914;51.008;4.300;2022-08-19T15:18:21;28.10;99.90
19538;DHT22;9914;51.008;4.300;2022-08-19T15:20:48;28.10;99.90
19538;DHT22;9914;51.008;4.300;2022-08-19T15:23:15;28.30;99.90
19538;DHT22;9914;51.008;4.300;2022-08-19T15:25:41;28.30;99.90
19538;DHT22;9914;51.008;4.300;2022-08-19T15:28:08;28.10;99.90
19538;DHT22;9914;51.008;4.300;2022-08-19T15:30:37;28.00;99.90
19538;DHT22;9914;51.008;4.300;2022-08-19T15:33:03;28.80;99.90
19538;DHT22;9914;51.008;4.300;2022-08-19T15:35:29;30.10;99.90
19538;DHT22;9914;51.008;4.300;2022-08-19T15:37:55;30.80;99.90
19538;DHT22;9914;51.008;4.300;2022-08-19T15:40:23;30.30;99.90
19538;DHT22;9914;51.008;4.300;2022-08-19T15:42:49;29.60;99.90
19538;DHT22;9914;51.008;4.300;2022-08-19T15:45:17;29.20;99.90
19538;DHT22;9914;51.008;4.300;2022-08-19T15:47:43;28.90;99.90
19538;DHT22;9914;51.008;4.300;2022-08-19T15:50:18;28.50;99.90
19538;DHT22;9914;51.008;4.300;2022-08-19T15:52:51;28.20;99.90
19538;DHT22;9914;51.008;4.300;2022-08-19T15:55:23;28.30;99.90
19538;DHT22;9914;51.008;4.300;2022-08-19T15:57:49;28.10;99.90